Time;durP1;ratioP1;P1;durP2;ratioP2;P2;SDS_P1;SDS_P2;PMS_P1;PMS_P2;Temp;Humidity;BMP_temperature;BMP_pressure;BME280_temperature;BME280_humidity;BME280_pressure;Samples;Min_cycle;Max_cycle;Signal;HPM_P1;HPM_P2
2022/11/04 00:02:36;;;;;;;;;;;;;;;6.79;77.99;100386.20;116255;1295;23836;-71
2022/11/04 00:05:25;;;;;;;;;;;;;;;6.79;78.18;100375.80;116278;1288;22432;-74
2022/11/04 00:08:25;;;;;;;;;;;;;;;6.78;78.00;100369.41;116264;1305;22455;-74
2022/11/04 00:14:17;;;;;;;;;;;;;;;6.70;77.65;100356.23;116314;1305;22432;-72
2022/11/04 00:17:20;;;;;;;;;;;;;;;6.67;77.78;100351.11;116277;1285;22432;-73
2022/11/04 00:29:43;;;;;;;;;;;;;;;6.79;77.95;100337.29;116217;1291;22441;-74
2022/11/04 00:35:36;;;;;;;;;;;;;;;6.79;78.05;100335.55;116299;1298;22425;-72
2022/11/04 00:38:24;;;;;;;;;;;;;;;6.78;78.08;100334.37;116288;1294;22436;-72
2022/11/04 00:44:31;;;;;;;;;;;;;;;6.87;77.88;100332.61;112552;1344;544204;-71
2022/11/04 00:47:20;;;;;;;;;;;;;;;6.91;77.78;100331.48;115544;1310;22494;-71
2022/11/04 00:50:10;;;;;;;;;;;;;;;6.96;77.59;100321.30;115580;1294;22457;-73
2022/11/04 00:53:03;;;;;;;;;;;;;;;7.00;77.64;100315.48;115571;1311;22498;-74
2022/11/04 00:55:50;;;;;;;;;;;;;;;7.02;77.55;100309.90;115587;1314;22451;-70
2022/11/04 00:58:37;;;;;;;;;;;;;;;7.01;77.26;100300.89;115553;1312;244191;-72
2022/11/04 01:01:24;;;;;;;;;;;;;;;7.03;77.34;100295.64;115765;1291;22437;-72
2022/11/04 01:04:12;;;;;;;;;;;;;;;7.06;77.09;100295.73;115781;1312;22465;-72
2022/11/04 01:07:04;;;;;;;;;;;;;;;7.10;76.98;100291.13;115749;1297;22457;-72
2022/11/04 01:09:52;;;;;;;;;;;;;;;7.11;76.99;100290.06;115768;1291;22517;-73
2022/11/04 01:12:42;;;;;;;;;;;;;;;7.11;76.79;100277.05;115726;1312;22464;-72
2022/11/04 01:15:30;;;;;;;;;;;;;;;7.11;76.82;100266.13;115795;1312;25316;-72
2022/11/04 01:18:18;;;;;;;;;;;;;;;7.10;76.82;100262.52;115767;1299;22461;-72
2022/11/04 01:21:06;;;;;;;;;;;;;;;7.10;76.65;100260.42;115735;1312;22444;-71
2022/11/04 01:23:54;;;;;;;;;;;;;;;7.13;76.56;100255.67;115737;1312;22414;-71
2022/11/04 01:26:47;;;;;;;;;;;;;;;7.18;76.42;100256.04;115751;1293;22502;-71
2022/11/04 01:29:37;;;;;;;;;;;;;;;7.24;76.55;100254.15;115750;1311;22448;-74
2022/11/04 01:32:24;;;;;;;;;;;;;;;7.28;76.47;100246.06;115749;1312;22537;-73
2022/11/04 01:35:13;;;;;;;;;;;;;;;7.30;76.20;100246.22;115799;1293;25827;-71
2022/11/04 01:38:01;;;;;;;;;;;;;;;7.31;76.10;100246.19;115729;1312;24291;-71
2022/11/04 01:40:49;;;;;;;;;;;;;;;7.30;76.01;100244.65;115689;1311;22435;-72
2022/11/04 01:43:47;;;;;;;;;;;;;;;7.30;76.02;100235.80;115767;1293;22533;-73
2022/11/04 01:46:39;;;;;;;;;;;;;;;7.31;75.78;100233.00;115780;1295;22438;-74
2022/11/04 01:49:27;;;;;;;;;;;;;;;7.34;75.75;100232.03;115736;1310;22432;-71
2022/11/04 01:52:16;;;;;;;;;;;;;;;7.39;75.52;100229.64;115753;1291;25378;-71
2022/11/04 01:55:06;;;;;;;;;;;;;;;7.42;75.42;100224.50;115766;1312;24228;-70
2022/11/04 01:57:59;;;;;;;;;;;;;;;7.44;75.37;100211.80;115773;1293;22453;-70
2022/11/04 02:00:47;;;;;;;;;;;;;;;7.45;75.20;100203.80;115765;1293;25352;-71
2022/11/04 02:03:38;;;;;;;;;;;;;;;7.44;74.96;100194.97;115724;1312;22376;-74
2022/11/04 02:06:26;;;;;;;;;;;;;;;7.42;74.96;100188.60;115757;1312;22455;-74
2022/11/04 02:09:14;;;;;;;;;;;;;;;7.43;74.97;100181.46;115763;1306;22433;-69
2022/11/04 02:15:09;;;;;;;;;;;;;;;7.50;74.80;100167.92;116101;1293;22466;-72
2022/11/04 02:18:19;;;;;;;;;;;;;;;7.54;74.69;100169.53;116123;1287;22490;-72
2022/11/04 02:21:46;;;;;;;;;;;;;;;7.55;74.55;100167.78;116110;1290;24248;-72
2022/11/04 02:25:01;;;;;;;;;;;;;;;7.55;74.29;100165.86;115972;1306;25244;-73
2022/11/04 02:28:12;;;;;;;;;;;;;;;7.53;74.25;100167.27;116087;1287;22499;-73
2022/11/04 02:31:05;;;;;;;;;;;;;;;7.53;74.07;100170.41;116146;1306;24273;-72
2022/11/04 02:33:54;;;;;;;;;;;;;;;7.56;73.96;100172.77;116095;1300;22436;-74
2022/11/04 02:36:48;;;;;;;;;;;;;;;7.60;73.89;100165.52;116095;1306;25364;-73
2022/11/04 02:39:40;;;;;;;;;;;;;;;7.64;73.95;100156.02;116189;1295;22445;-71
2022/11/04 02:42:34;;;;;;;;;;;;;;;7.65;73.67;100150.95;116115;1293;22443;-72
2022/11/04 02:45:24;;;;;;;;;;;;;;;7.64;73.50;100143.54;116118;1306;22603;-71
2022/11/04 02:48:19;;;;;;;;;;;;;;;7.61;73.51;100134.27;116157;1298;25243;-72
2022/11/04 02:51:07;;;;;;;;;;;;;;;7.57;73.53;100134.87;116115;1306;22426;-71
2022/11/04 02:54:00;;;;;;;;;;;;;;;7.55;73.53;100135.66;116118;1285;22437;-73
2022/11/04 02:56:49;;;;;;;;;;;;;;;7.55;73.45;100130.77;116069;1306;24381;-73
2022/11/04 02:59:41;;;;;;;;;;;;;;;7.57;73.29;100126.37;116157;1306;22591;-69
2022/11/04 03:02:30;;;;;;;;;;;;;;;7.60;73.41;100120.05;116103;1306;22784;-69
2022/11/04 03:05:20;;;;;;;;;;;;;;;7.62;73.39;100122.23;116150;1297;22510;-71
2022/11/04 03:08:08;;;;;;;;;;;;;;;7.62;73.48;100119.64;116122;1299;22466;-72
2022/11/04 03:10:58;;;;;;;;;;;;;;;7.60;73.26;100117.97;116132;1287;22454;-72
2022/11/04 03:13:51;;;;;;;;;;;;;;;7.58;73.31;100123.23;116136;1305;24389;-71
2022/11/04 03:16:45;;;;;;;;;;;;;;;7.58;73.22;100124.79;116114;1300;22436;-71
2022/11/04 03:19:37;;;;;;;;;;;;;;;7.61;73.31;100120.02;116176;1306;22476;-72
2022/11/04 03:22:28;;;;;;;;;;;;;;;7.63;73.18;100119.08;116145;1297;25194;-72
2022/11/04 03:25:17;;;;;;;;;;;;;;;7.67;73.22;100118.61;116158;1306;22443;-70
2022/11/04 03:28:08;;;;;;;;;;;;;;;7.68;72.97;100114.59;116102;1287;22501;-71
2022/11/04 03:30:57;;;;;;;;;;;;;;;7.66;72.98;100113.26;116132;1305;25396;-71
2022/11/04 03:33:45;;;;;;;;;;;;;;;7.63;73.06;100110.59;116103;1287;22524;-71
2022/11/04 03:36:32;;;;;;;;;;;;;;;7.58;73.03;100107.94;116100;1285;22441;-72
2022/11/04 03:39:20;;;;;;;;;;;;;;;7.54;73.08;100104.08;116040;1291;22486;-73
2022/11/04 03:42:18;;;;;;;;;;;;;;;7.51;73.03;100102.25;116096;1306;22444;-73
2022/11/04 03:45:10;;;;;;;;;;;;;;;7.53;73.18;100101.33;116113;1293;22523;-72
2022/11/04 03:47:58;;;;;;;;;;;;;;;7.57;72.97;100092.55;116080;1306;22486;-71
2022/11/04 03:50:48;;;;;;;;;;;;;;;7.59;73.00;100094.05;116146;1306;22461;-71
2022/11/04 03:53:37;;;;;;;;;;;;;;;7.61;72.95;100087.55;116058;1292;22423;-71
2022/11/04 03:56:47;;;;;;;;;;;;;;;7.62;72.97;100076.58;116107;1306;25551;-71
2022/11/04 03:59:55;;;;;;;;;;;;;;;7.62;72.95;100072.77;116219;1306;22455;-73
2022/11/04 04:03:06;;;;;;;;;;;;;;;7.60;72.89;100067.27;116138;1300;22443;-73
2022/11/04 04:05:57;;;;;;;;;;;;;;;7.60;72.94;100066.42;116170;1302;22460;-71
2022/11/04 04:08:47;;;;;;;;;;;;;;;7.59;72.80;100065.73;116146;1290;22448;-72
2022/11/04 04:11:39;;;;;;;;;;;;;;;7.60;72.72;100069.52;116100;1306;22385;-71
2022/11/04 04:14:39;;;;;;;;;;;;;;;7.65;72.74;100069.73;116147;1302;22465;-71
2022/11/04 04:17:32;;;;;;;;;;;;;;;7.71;72.61;100062.58;116096;1294;22481;-73
2022/11/04 04:20:20;;;;;;;;;;;;;;;7.78;72.42;100062.55;116099;1297;22501;-71
2022/11/04 04:27:29;;;;;;;;;;;;;;;7.83;72.58;100069.52;116117;1280;22500;-70
2022/11/04 04:29:21;;;;;;;;;;;;;;;7.86;72.27;100071.84;116111;1306;22544;-69
2022/11/04 04:32:08;;;;;;;;;;;;;;;7.85;72.28;100074.64;116062;1306;22570;-71
2022/11/04 04:35:40;;;;;;;;;;;;;;;7.83;72.20;100080.80;116151;1306;22401;-73
2022/11/04 04:47:46;;;;;;;;;;;;;;;7.83;72.29;100081.33;115833;1306;22542;-75
2022/11/04 04:50:36;;;;;;;;;;;;;;;7.87;72.33;100077.55;116158;1284;22517;-71
2022/11/04 04:53:23;;;;;;;;;;;;;;;7.89;72.41;100078.52;116122;1301;22422;-71
2022/11/04 04:56:11;;;;;;;;;;;;;;;7.89;72.39;100076.80;116070;1295;22459;-69
2022/11/04 04:59:01;;;;;;;;;;;;;;;7.88;72.42;100072.99;116117;1294;22446;-75
2022/11/04 05:01:50;;;;;;;;;;;;;;;7.86;72.30;100072.02;116119;1306;22421;-73
2022/11/04 05:04:39;;;;;;;;;;;;;;;7.84;72.41;100074.34;116114;1290;22454;-70
2022/11/04 05:07:27;;;;;;;;;;;;;;;7.81;72.31;100072.17;116100;1287;25361;-70
2022/11/04 05:10:15;;;;;;;;;;;;;;;7.77;72.35;100074.71;116127;1297;22463;-74
2022/11/04 05:16:08;;;;;;;;;;;;;;;7.74;72.33;100075.50;116094;1302;22783;-73
2022/11/04 05:18:56;;;;;;;;;;;;;;;7.78;72.45;100071.94;116112;1301;22450;-73
2022/11/04 05:21:44;;;;;;;;;;;;;;;7.81;72.64;100069.74;116433;1295;22517;-73
2022/11/04 05:24:37;;;;;;;;;;;;;;;7.85;72.53;100065.64;116466;1295;25229;-72
2022/11/04 05:27:26;;;;;;;;;;;;;;;7.86;72.30;100058.83;116420;1302;24268;-70
2022/11/04 05:30:14;;;;;;;;;;;;;;;7.84;72.43;100059.60;116476;1303;25848;-70
2022/11/04 05:33:04;;;;;;;;;;;;;;;7.82;72.36;100058.95;116458;1303;22483;-71
2022/11/04 05:35:52;;;;;;;;;;;;;;;7.78;72.41;100054.21;116472;1284;25169;-72
2022/11/04 05:38:41;;;;;;;;;;;;;;;7.76;72.37;100056.86;116478;1281;22445;-70
2022/11/04 05:41:33;;;;;;;;;;;;;;;7.79;72.56;100053.84;116427;1295;22454;-70
2022/11/04 05:44:22;;;;;;;;;;;;;;;7.83;72.52;100045.88;116471;1294;22438;-72
2022/11/04 05:47:10;;;;;;;;;;;;;;;7.87;72.46;100046.98;116445;1303;22452;-73
2022/11/04 05:50:01;;;;;;;;;;;;;;;7.88;72.52;100042.08;116443;1271;22435;-72
2022/11/04 05:52:48;;;;;;;;;;;;;;;7.87;72.37;100036.36;116422;1303;22417;-74
2022/11/04 05:55:35;;;;;;;;;;;;;;;7.87;72.33;100034.64;116463;1287;22449;-73
2022/11/04 05:58:23;;;;;;;;;;;;;;;7.85;72.26;100031.23;116447;1302;22919;-72
2022/11/04 06:01:25;;;;;;;;;;;;;;;7.85;72.42;100027.27;116449;1287;22435;-71
2022/11/04 06:04:18;;;;;;;;;;;;;;;7.82;72.43;100026.31;116488;1295;22483;-71
2022/11/04 06:07:06;;;;;;;;;;;;;;;7.80;72.47;100026.22;116419;1285;22564;-71
2022/11/04 06:09:56;;;;;;;;;;;;;;;7.78;72.57;100025.56;116371;1299;22448;-71
2022/11/04 06:12:46;;;;;;;;;;;;;;;7.76;72.69;100025.25;116453;1303;22498;-72
2022/11/04 06:15:34;;;;;;;;;;;;;;;7.77;72.75;100023.52;116488;1303;22462;-72
2022/11/04 06:18:24;;;;;;;;;;;;;;;7.82;72.75;100020.40;116480;1303;22426;-71
2022/11/04 06:21:21;;;;;;;;;;;;;;;7.88;72.86;100014.63;116434;1295;25189;-69
2022/11/04 06:24:10;;;;;;;;;;;;;;;7.95;73.01;100005.36;116482;1282;22439;-72
2022/11/04 06:26:58;;;;;;;;;;;;;;;8.02;72.88;100008.63;116441;1303;22484;-73
2022/11/04 06:29:48;;;;;;;;;;;;;;;8.05;72.62;100003.48;116447;1303;24354;-69
2022/11/04 06:32:39;;;;;;;;;;;;;;;8.07;72.63;100002.02;116444;1295;22552;-69
2022/11/04 06:35:27;;;;;;;;;;;;;;;8.09;72.62;99998.51;116467;1294;22454;-70
2022/11/04 06:38:17;;;;;;;;;;;;;;;8.10;72.66;99999.50;116434;1303;24942;-71
2022/11/04 06:41:06;;;;;;;;;;;;;;;8.15;72.52;100005.41;116465;1282;22476;-72
2022/11/04 06:43:53;;;;;;;;;;;;;;;8.22;72.50;100006.38;116440;1303;22435;-71
2022/11/04 06:46:41;;;;;;;;;;;;;;;8.29;72.30;100008.93;116440;1303;22842;-69
2022/11/04 06:49:29;;;;;;;;;;;;;;;8.35;72.14;100009.08;116436;1303;25899;-71
2022/11/04 06:52:19;;;;;;;;;;;;;;;8.38;72.11;100017.35;116438;1295;22441;-71
2022/11/04 06:55:11;;;;;;;;;;;;;;;8.39;71.92;100008.44;116447;1284;22442;-69
2022/11/04 06:57:58;;;;;;;;;;;;;;;8.39;71.87;100009.48;116414;1303;22753;-70
2022/11/04 07:00:54;;;;;;;;;;;;;;;8.39;71.86;100011.40;116441;1295;24922;-73
2022/11/04 07:03:41;;;;;;;;;;;;;;;8.36;71.65;100012.86;116459;1289;22829;-72
2022/11/04 07:06:29;;;;;;;;;;;;;;;8.36;71.78;100013.56;116427;1286;22439;-71
2022/11/04 07:09:16;;;;;;;;;;;;;;;8.35;71.60;100011.86;116486;1295;22434;-72
2022/11/04 07:12:04;;;;;;;;;;;;;;;8.34;71.68;100018.84;116456;1303;22529;-73
2022/11/04 07:14:54;;;;;;;;;;;;;;;8.32;71.44;100020.11;116449;1303;22441;-70
2022/11/04 07:17:43;;;;;;;;;;;;;;;8.31;71.53;100016.66;116411;1303;22440;-70
2022/11/04 07:20:30;;;;;;;;;;;;;;;8.30;71.53;100016.55;116460;1303;24386;-75
2022/11/04 07:23:22;;;;;;;;;;;;;;;8.33;71.42;100020.63;116434;1303;22555;-72
2022/11/04 07:26:11;;;;;;;;;;;;;;;8.37;71.38;100012.30;116432;1281;22434;-72
2022/11/04 07:28:59;;;;;;;;;;;;;;;8.46;71.39;100015.84;116446;1303;24363;-72
2022/11/04 07:31:47;;;;;;;;;;;;;;;8.52;71.18;100013.54;116450;1281;22434;-70
2022/11/04 07:34:39;;;;;;;;;;;;;;;8.55;71.14;100006.64;116479;1295;22452;-72
2022/11/04 07:37:31;;;;;;;;;;;;;;;8.60;71.16;100002.83;116340;1303;22433;-72
2022/11/04 07:40:21;;;;;;;;;;;;;;;8.64;71.04;100000.76;116448;1280;22432;-71
2022/11/04 07:43:09;;;;;;;;;;;;;;;8.69;71.01;99999.34;116395;1284;22445;-71
2022/11/04 07:46:05;;;;;;;;;;;;;;;8.75;70.93;100001.23;116402;1300;22526;-72
2022/11/04 07:48:52;;;;;;;;;;;;;;;8.81;70.87;100002.77;116396;1293;24260;-74
2022/11/04 07:51:40;;;;;;;;;;;;;;;8.89;70.66;100000.73;116347;1303;22438;-71
2022/11/04 07:54:33;;;;;;;;;;;;;;;8.99;70.42;99996.67;116403;1303;22457;-72
2022/11/04 07:57:22;;;;;;;;;;;;;;;9.13;70.28;99991.98;116316;1292;22443;-72
2022/11/04 08:00:14;;;;;;;;;;;;;;;9.26;69.98;99985.94;116330;1303;22430;-71
2022/11/04 08:03:01;;;;;;;;;;;;;;;9.34;69.73;99980.09;116338;1297;22430;-72
2022/11/04 08:05:49;;;;;;;;;;;;;;;9.40;69.82;99977.89;116334;1294;25242;-73
2022/11/04 08:08:36;;;;;;;;;;;;;;;9.45;69.52;99976.46;116337;1303;22384;-70
2022/11/04 08:11:28;;;;;;;;;;;;;;;9.45;69.24;99975.79;116282;1288;22440;-72
2022/11/04 08:14:18;;;;;;;;;;;;;;;9.44;69.39;99976.32;116352;1291;22475;-73
2022/11/04 08:17:05;;;;;;;;;;;;;;;9.43;69.06;99974.13;116373;1285;22483;-72
2022/11/04 08:19:52;;;;;;;;;;;;;;;9.39;69.01;99970.62;116362;1295;22451;-72
2022/11/04 08:22:43;;;;;;;;;;;;;;;9.36;69.13;99968.31;116276;1290;22435;-71
2022/11/04 08:25:30;;;;;;;;;;;;;;;9.32;69.23;99967.76;116349;1283;22440;-72
2022/11/04 08:28:19;;;;;;;;;;;;;;;9.26;69.27;99967.10;116386;1303;22458;-72
2022/11/04 08:31:09;;;;;;;;;;;;;;;9.23;69.32;99965.14;116365;1303;22486;-74
2022/11/04 08:34:05;;;;;;;;;;;;;;;9.20;69.31;99961.96;116395;1303;24215;-70
2022/11/04 08:41:16;;;;;;;;;;;;;;;9.25;69.32;99957.77;116499;1290;22501;-72
2022/11/04 08:44:07;;;;;;;;;;;;;;;9.28;69.25;99955.73;116310;1304;22443;-71
2022/11/04 08:46:57;;;;;;;;;;;;;;;9.28;69.20;99955.01;116365;1303;25362;-73
2022/11/04 08:49:45;;;;;;;;;;;;;;;9.30;69.22;99950.74;116293;1290;22446;-72
2022/11/04 08:52:32;;;;;;;;;;;;;;;9.29;69.07;99940.20;116330;1304;22432;-72
2022/11/04 08:55:19;;;;;;;;;;;;;;;9.27;68.89;99938.54;116318;1302;22628;-72
2022/11/04 08:58:07;;;;;;;;;;;;;;;9.24;68.99;99938.80;116077;1304;398648;-70
2022/11/04 09:00:56;;;;;;;;;;;;;;;9.23;69.21;99935.73;116329;1303;22422;-71
2022/11/04 09:03:44;;;;;;;;;;;;;;;9.22;69.37;99937.00;116324;1290;22457;-70
2022/11/04 09:06:36;;;;;;;;;;;;;;;9.22;69.32;99937.89;116346;1300;22385;-72
2022/11/04 09:09:23;;;;;;;;;;;;;;;9.27;69.30;99936.98;116382;1291;22456;-72
2022/11/04 09:12:13;;;;;;;;;;;;;;;9.34;69.26;99938.61;116368;1295;22582;-72
2022/11/04 09:15:04;;;;;;;;;;;;;;;9.42;69.25;99937.77;116375;1303;22454;-72
2022/11/04 09:17:51;;;;;;;;;;;;;;;9.48;69.18;99936.48;116417;1291;25219;-70
2022/11/04 09:20:41;;;;;;;;;;;;;;;9.51;69.10;99935.46;116354;1296;23704;-70
2022/11/04 09:23:29;;;;;;;;;;;;;;;9.54;69.02;99932.94;116376;1298;22450;-70
2022/11/04 09:26:17;;;;;;;;;;;;;;;9.54;69.00;99926.14;116398;1292;25347;-72
2022/11/04 09:29:05;;;;;;;;;;;;;;;9.56;69.02;99927.80;116608;1303;24257;-73
2022/11/04 09:31:55;;;;;;;;;;;;;;;9.56;68.90;99925.87;116643;1287;22445;-69
2022/11/04 09:34:42;;;;;;;;;;;;;;;9.58;68.99;99924.39;116603;1299;25220;-69
2022/11/04 09:37:31;;;;;;;;;;;;;;;9.59;69.00;99921.41;116672;1304;22524;-72
2022/11/04 09:40:19;;;;;;;;;;;;;;;9.60;69.09;99922.05;116387;1283;22434;-74
2022/11/04 09:43:19;;;;;;;;;;;;;;;9.62;69.14;99920.77;116559;1281;22518;-70
2022/11/04 09:46:06;;;;;;;;;;;;;;;9.62;69.13;99917.96;116598;1298;22440;-71
2022/11/04 09:48:55;;;;;;;;;;;;;;;9.65;69.13;99912.64;116618;1303;23754;-72
2022/11/04 09:51:45;;;;;;;;;;;;;;;9.67;69.07;99907.48;116423;1303;22389;-71
2022/11/04 09:54:35;;;;;;;;;;;;;;;9.77;69.09;99897.86;116604;1282;22451;-71
2022/11/04 09:57:23;;;;;;;;;;;;;;;9.88;68.99;99897.20;116632;1288;22452;-69
2022/11/04 10:00:16;;;;;;;;;;;;;;;10.02;69.17;99891.55;116607;1298;22447;-70
2022/11/04 10:03:11;;;;;;;;;;;;;;;10.17;68.65;99891.26;116651;1292;22499;-70
2022/11/04 10:06:09;;;;;;;;;;;;;;;10.32;68.52;99893.58;116618;1294;22453;-72
2022/11/04 10:09:13;;;;;;;;;;;;;;;10.45;67.60;99896.33;116602;1301;24241;-71
2022/11/04 10:12:07;;;;;;;;;;;;;;;10.54;67.22;99888.41;116596;1301;22405;-74
2022/11/04 10:15:01;;;;;;;;;;;;;;;10.60;66.95;99886.23;116636;1297;25237;-71
2022/11/04 10:17:58;;;;;;;;;;;;;;;10.68;66.89;99885.67;116622;1288;22442;-71
2022/11/04 10:20:54;;;;;;;;;;;;;;;10.76;67.01;99881.63;116621;1301;22652;-72
2022/11/04 10:23:43;;;;;;;;;;;;;;;10.85;66.78;99882.77;116627;1301;22392;-71
2022/11/04 10:26:32;;;;;;;;;;;;;;;10.91;66.38;99878.84;116618;1298;22559;-72
2022/11/04 10:29:29;;;;;;;;;;;;;;;10.92;65.90;99875.13;116648;1288;22549;-73
2022/11/04 10:32:20;;;;;;;;;;;;;;;10.92;65.97;99875.09;116418;1304;22437;-71
2022/11/04 10:35:14;;;;;;;;;;;;;;;10.98;65.58;99872.39;116634;1283;22437;-71
2022/11/04 10:38:09;;;;;;;;;;;;;;;11.05;65.82;99860.90;116633;1301;24265;-75
2022/11/04 10:40:58;;;;;;;;;;;;;;;11.15;65.74;99861.64;116628;1301;22449;-74
2022/11/04 10:43:47;;;;;;;;;;;;;;;11.27;65.35;99857.38;116600;1294;22419;-72
2022/11/04 10:46:51;;;;;;;;;;;;;;;11.43;65.42;99850.81;116622;1301;22437;-72
2022/11/04 10:50:00;;;;;;;;;;;;;;;11.57;64.43;99848.54;116593;1301;22435;-72
2022/11/04 10:52:48;;;;;;;;;;;;;;;11.67;63.65;99840.52;116399;1303;25852;-74
2022/11/04 10:55:41;;;;;;;;;;;;;;;11.71;63.54;99840.46;116396;1304;22423;-72
2022/11/04 10:58:34;;;;;;;;;;;;;;;11.77;63.60;99837.38;116614;1288;22474;-73
2022/11/04 11:01:32;;;;;;;;;;;;;;;11.88;63.32;99837.54;116648;1284;22374;-71
2022/11/04 11:04:28;;;;;;;;;;;;;;;11.97;63.48;99837.98;116639;1282;22434;-73
2022/11/04 11:07:21;;;;;;;;;;;;;;;12.05;62.44;99837.17;116663;1301;22490;-72
2022/11/04 11:10:20;;;;;;;;;;;;;;;12.11;62.91;99826.89;116428;1285;24373;-72
2022/11/04 11:13:41;;;;;;;;;;;;;;;12.16;62.26;99827.34;115942;1292;22427;-71
2022/11/04 11:16:50;;;;;;;;;;;;;;;12.09;62.20;99826.82;115664;1313;22466;-73
2022/11/04 11:19:58;;;;;;;;;;;;;;;12.05;62.01;99831.04;115274;1316;22535;-72
2022/11/04 11:23:31;;;;;;;;;;;;;;;12.02;62.06;99826.33;115058;1301;22506;-70
2022/11/04 11:26:47;;;;;;;;;;;;;;;12.03;62.38;99819.80;114635;1323;25909;-73
2022/11/04 11:29:55;;;;;;;;;;;;;;;12.05;61.99;99804.98;114274;1332;23313;-73
2022/11/04 12:10:30;;;;;;;;;;;;;;;11.91;62.74;99772.55;114703;1314;22471;-74
2022/11/04 12:13:22;;;;;;;;;;;;;;;11.96;62.63;99778.21;116135;1293;22452;-72
2022/11/04 12:16:18;;;;;;;;;;;;;;;12.01;61.37;99780.04;116162;1306;22457;-73
2022/11/04 12:19:14;;;;;;;;;;;;;;;12.05;61.23;99773.20;116143;1302;22524;-73
2022/11/04 12:22:05;;;;;;;;;;;;;;;12.07;61.02;99771.87;116166;1306;24252;-72
2022/11/04 12:25:22;;;;;;;;;;;;;;;12.06;61.17;99763.52;115785;1312;25952;-70
2022/11/04 12:28:35;;;;;;;;;;;;;;;12.04;60.96;99763.27;115408;1317;24282;-72
2022/11/04 12:31:51;;;;;;;;;;;;;;;11.99;60.97;99761.09;115218;1308;24314;-72
2022/11/04 12:34:48;;;;;;;;;;;;;;;11.96;60.95;99760.77;115886;1306;24277;-72
2022/11/04 12:37:39;;;;;;;;;;;;;;;11.90;61.22;99759.46;116160;1291;22455;-73
2022/11/04 12:40:31;;;;;;;;;;;;;;;11.84;61.28;99763.12;116113;1305;22442;-72
2022/11/04 12:43:22;;;;;;;;;;;;;;;11.78;61.35;99771.77;116141;1306;23832;-73
2022/11/04 12:46:13;;;;;;;;;;;;;;;11.73;61.73;99768.59;116133;1287;22696;-72
2022/11/04 12:49:27;;;;;;;;;;;;;;;11.67;61.82;99770.63;116122;1306;22459;-73
2022/11/04 12:52:22;;;;;;;;;;;;;;;11.60;61.77;99768.01;116167;1306;22449;-71
2022/11/04 12:55:28;;;;;;;;;;;;;;;11.53;61.76;99772.38;116129;1306;22455;-72
2022/11/04 12:58:28;;;;;;;;;;;;;;;11.48;61.94;99763.23;116123;1287;22650;-75
2022/11/04 13:01:17;;;;;;;;;;;;;;;11.43;62.19;99767.31;116148;1306;22492;-73
2022/11/04 13:04:07;;;;;;;;;;;;;;;11.39;62.18;99768.76;116125;1286;24269;-71
2022/11/04 13:06:55;;;;;;;;;;;;;;;11.35;62.16;99762.48;116326;1293;22486;-72
2022/11/04 13:09:52;;;;;;;;;;;;;;;11.32;62.25;99762.66;116583;1301;22440;-74
2022/11/04 13:12:44;;;;;;;;;;;;;;;11.28;62.13;99763.55;116629;1300;22443;-72
2022/11/04 13:15:40;;;;;;;;;;;;;;;11.25;61.99;99763.72;116538;1281;22433;-73
2022/11/04 13:18:28;;;;;;;;;;;;;;;11.22;62.07;99761.60;116592;1301;22464;-70
2022/11/04 13:21:22;;;;;;;;;;;;;;;11.20;62.17;99758.74;116633;1301;22385;-71
2022/11/04 13:24:15;;;;;;;;;;;;;;;11.18;62.13;99761.96;116602;1301;22926;-71
2022/11/04 13:27:06;;;;;;;;;;;;;;;11.16;62.08;99773.95;116601;1301;25179;-74
2022/11/04 13:30:00;;;;;;;;;;;;;;;11.15;62.11;99772.63;116621;1301;22450;-73
2022/11/04 13:32:50;;;;;;;;;;;;;;;11.13;62.24;99777.02;116633;1282;22494;-73
2022/11/04 13:35:41;;;;;;;;;;;;;;;11.11;62.43;99774.35;116617;1284;22418;-72
2022/11/04 13:38:31;;;;;;;;;;;;;;;11.08;62.19;99772.73;116608;1290;24757;-74
2022/11/04 13:41:33;;;;;;;;;;;;;;;11.07;62.37;99775.77;116656;1301;22445;-73
2022/11/04 13:44:24;;;;;;;;;;;;;;;11.06;62.44;99774.11;116620;1295;22490;-74
2022/11/04 13:47:17;;;;;;;;;;;;;;;11.04;62.41;99779.44;116663;1298;22448;-73
2022/11/04 13:50:28;;;;;;;;;;;;;;;11.01;62.47;99777.98;116591;1301;22446;-70
2022/11/04 13:53:23;;;;;;;;;;;;;;;10.99;62.19;99775.67;116637;1301;22441;-71
2022/11/04 13:56:25;;;;;;;;;;;;;;;10.99;62.46;99773.72;116410;1303;22391;-71
2022/11/04 13:59:22;;;;;;;;;;;;;;;11.02;62.39;99771.48;116590;1296;22481;-72
2022/11/04 14:02:41;;;;;;;;;;;;;;;11.06;62.61;99770.22;116607;1301;24196;-71
2022/11/04 14:05:56;;;;;;;;;;;;;;;11.11;62.44;99777.84;116608;1301;22465;-72
2022/11/04 14:09:15;;;;;;;;;;;;;;;11.14;62.33;99778.06;116569;1284;22431;-72
2022/11/04 14:12:34;;;;;;;;;;;;;;;11.14;62.17;99776.16;116597;1288;22437;-70
2022/11/04 14:16:01;;;;;;;;;;;;;;;11.12;62.47;99774.45;116000;1307;22477;-70
2022/11/04 14:18:50;;;;;;;;;;;;;;;11.08;62.32;99772.94;115988;1287;22459;-74
2022/11/04 14:22:04;;;;;;;;;;;;;;;11.04;62.28;99768.62;116567;1300;22434;-73
2022/11/04 14:24:57;;;;;;;;;;;;;;;10.97;62.28;99762.83;116606;1300;25055;-73
2022/11/04 14:27:47;;;;;;;;;;;;;;;10.93;62.13;99756.24;116441;1303;22575;-71
2022/11/04 14:30:46;;;;;;;;;;;;;;;10.89;62.15;99756.44;116600;1286;22823;-71
2022/11/04 14:33:44;;;;;;;;;;;;;;;10.84;62.33;99759.45;116613;1285;22437;-73
2022/11/04 14:36:40;;;;;;;;;;;;;;;10.79;62.20;99762.33;116433;1299;22499;-72
2022/11/04 14:39:30;;;;;;;;;;;;;;;10.75;62.21;99758.52;116640;1291;22455;-71
2022/11/04 14:42:18;;;;;;;;;;;;;;;10.71;62.27;99754.14;116629;1301;22865;-71
2022/11/04 14:45:06;;;;;;;;;;;;;;;10.69;62.10;99756.02;116624;1284;22433;-72
2022/11/04 14:48:01;;;;;;;;;;;;;;;10.66;62.17;99752.46;116377;1303;24193;-74
2022/11/04 14:50:52;;;;;;;;;;;;;;;10.64;62.31;99752.24;116633;1301;22461;-72
2022/11/04 14:53:42;;;;;;;;;;;;;;;10.61;62.23;99755.89;116616;1294;22460;-73
2022/11/04 14:56:29;;;;;;;;;;;;;;;10.57;62.43;99753.25;116628;1285;22606;-73
2022/11/04 14:59:27;;;;;;;;;;;;;;;10.58;62.44;99757.07;116589;1285;22504;-71
2022/11/04 15:02:21;;;;;;;;;;;;;;;10.60;62.68;99754.53;116637;1275;22489;-73
2022/11/04 15:05:27;;;;;;;;;;;;;;;10.64;62.73;99764.97;116594;1295;22517;-73
2022/11/04 15:08:35;;;;;;;;;;;;;;;10.66;62.79;99771.67;116614;1297;22445;-73
2022/11/04 15:14:26;;;;;;;;;;;;;;;10.67;62.87;99773.17;116466;1303;22386;-73
2022/11/04 15:17:17;;;;;;;;;;;;;;;10.65;62.67;99778.89;116369;1302;24368;-71
2022/11/04 15:20:20;;;;;;;;;;;;;;;10.62;62.90;99777.09;116372;1303;22452;-72
2022/11/04 15:23:14;;;;;;;;;;;;;;;10.59;62.89;99779.32;116631;1301;22434;-72
2022/11/04 15:26:06;;;;;;;;;;;;;;;10.57;63.04;99780.29;116416;1303;22497;-71
2022/11/04 15:28:54;;;;;;;;;;;;;;;10.54;63.20;99781.45;116614;1288;22437;-72
2022/11/04 15:31:54;;;;;;;;;;;;;;;10.52;63.37;99776.52;116598;1295;22403;-71
2022/11/04 15:34:42;;;;;;;;;;;;;;;10.50;63.59;99779.95;116646;1301;22508;-73
2022/11/04 15:37:29;;;;;;;;;;;;;;;10.48;63.64;99783.84;116597;1291;22451;-72
2022/11/04 15:40:16;;;;;;;;;;;;;;;10.46;63.70;99787.79;116603;1294;22443;-73
2022/11/04 15:43:04;;;;;;;;;;;;;;;10.45;63.87;99789.26;116629;1301;22473;-72
2022/11/04 15:45:54;;;;;;;;;;;;;;;10.46;63.95;99788.86;116607;1301;22508;-72
2022/11/04 15:48:41;;;;;;;;;;;;;;;10.49;64.23;99789.38;116601;1301;22409;-73
2022/11/04 15:51:29;;;;;;;;;;;;;;;10.53;64.23;99782.93;116624;1284;22483;-73
2022/11/04 15:54:22;;;;;;;;;;;;;;;10.56;64.40;99784.54;116444;1282;22463;-74
2022/11/04 15:57:21;;;;;;;;;;;;;;;10.56;64.47;99780.88;116639;1283;22469;-72
2022/11/04 16:00:24;;;;;;;;;;;;;;;10.56;64.63;99778.08;116412;1301;22454;-73
2022/11/04 16:03:23;;;;;;;;;;;;;;;10.54;64.61;99776.41;116664;1291;22446;-72
2022/11/04 16:06:11;;;;;;;;;;;;;;;10.53;65.08;99785.73;116705;1294;22434;-72
2022/11/04 16:09:07;;;;;;;;;;;;;;;10.50;65.04;99788.30;116615;1301;22477;-74
2022/11/04 16:12:13;;;;;;;;;;;;;;;10.47;65.24;99788.98;116692;1301;22418;-72
2022/11/04 16:15:01;;;;;;;;;;;;;;;10.44;65.29;99796.63;116634;1295;22437;-71